Time;durP1;ratioP1;P1;durP2;ratioP2;P2;SDS_P1;SDS_P2;PMS_P1;PMS_P2;Temp;Humidity;BMP_temperature;BMP_pressure;BME280_temperature;BME280_humidity;BME280_pressure;Samples;Min_cycle;Max_cycle;Signal;HPM_P1;HPM_P2
2022/11/17 00:00:23;;;;;;;0.60;0.60;;;14.30;99.90;;;;;;5095801;28;20107;-85
2022/11/17 00:02:49;;;;;;;0.88;0.68;;;14.30;99.90;;;;;;5095636;28;20024;-85
2022/11/17 00:05:15;;;;;;;2.95;1.02;;;14.30;99.90;;;;;;5076851;28;20031;-85
2022/11/17 00:07:44;;;;;;;3.13;0.90;;;14.30;99.90;;;;;;5095386;28;20016;-84
2022/11/17 00:10:10;;;;;;;3.53;1.50;;;14.30;99.90;;;;;;5094895;28;20082;-85
2022/11/17 00:15:21;;;;;;;0.68;0.60;;;14.30;99.90;;;;;;5095446;28;20085;-85
2022/11/17 00:17:47;;;;;;;1.27;0.77;;;14.30;99.90;;;;;;5076726;28;20020;-85
2022/11/17 00:22:58;;;;;;;1.35;0.70;;;14.30;99.90;;;;;;5095639;28;20035;-84
2022/11/17 00:25:24;;;;;;;2.65;1.20;;;14.70;99.90;;;;;;5094638;28;20036;-84
2022/11/17 00:27:49;;;;;;;1.60;0.88;;;14.30;99.90;;;;;;5094899;28;20029;-84
2022/11/17 00:34:03;;;;;;;2.63;1.10;;;14.20;99.90;;;;;;5094773;28;20030;-85
2022/11/17 00:35:55;;;;;;;3.15;0.80;;;14.60;99.90;;;;;;5031987;28;20052;-85
2022/11/17 00:38:21;;;;;;;0.63;0.60;;;14.30;99.90;;;;;;5032751;28;20542;-84
2022/11/17 00:40:46;;;;;;;3.92;0.90;;;14.30;99.90;;;;;;5031961;28;20037;-84
2022/11/17 00:43:12;;;;;;;3.65;0.90;;;14.30;99.90;;;;;;5032226;28;20094;-85
2022/11/17 00:45:37;;;;;;;0.73;0.68;;;14.30;99.90;;;;;;5032216;28;20080;-85
2022/11/17 00:48:03;;;;;;;2.67;0.65;;;14.30;99.90;;;;;;5032515;28;20502;-85
2022/11/17 00:50:29;;;;;;;1.77;0.85;;;14.30;99.90;;;;;;5015133;28;20026;-84
2022/11/17 00:52:54;;;;;;;2.03;0.93;;;14.30;99.90;;;;;;5032525;28;20033;-84
2022/11/17 00:55:20;;;;;;;4.43;1.17;;;14.20;99.90;;;;;;5031818;28;20067;-85
2022/11/17 00:57:45;;;;;;;2.88;0.98;;;14.20;99.90;;;;;;5015377;28;20371;-84
2022/11/17 01:00:11;;;;;;;2.17;0.70;;;14.20;99.90;;;;;;5032331;28;20094;-84
2022/11/17 01:02:37;;;;;;;3.60;0.70;;;14.20;99.90;;;;;;5015340;28;20109;-84
2022/11/17 01:05:03;;;;;;;1.48;1.08;;;14.20;99.90;;;;;;5030960;28;20120;-85
2022/11/17 01:07:29;;;;;;;1.10;0.70;;;14.20;99.90;;;;;;5031815;28;20025;-84
2022/11/17 01:09:54;;;;;;;2.88;0.95;;;14.30;99.90;;;;;;5031373;28;20092;-85
2022/11/17 01:12:20;;;;;;;1.25;0.65;;;14.30;99.90;;;;;;5053933;28;20047;-85
2022/11/17 01:14:46;;;;;;;3.55;1.00;;;14.30;99.90;;;;;;5094084;28;20407;-84
2022/11/17 01:17:11;;;;;;;2.05;0.93;;;14.30;99.90;;;;;;5075496;28;20032;-85
2022/11/17 01:19:37;;;;;;;1.80;0.80;;;14.30;99.90;;;;;;5093803;28;20035;-84
2022/11/17 01:22:02;;;;;;;4.07;1.08;;;14.30;99.90;;;;;;5076116;28;20020;-85
2022/11/17 01:24:28;;;;;;;1.85;0.60;;;14.30;99.90;;;;;;5093291;28;20048;-85
2022/11/17 01:26:54;;;;;;;7.90;1.00;;;14.40;99.90;;;;;;5093700;28;20103;-85
2022/11/17 01:29:19;;;;;;;3.70;1.00;;;14.40;99.90;;;;;;5094105;28;20051;-85
2022/11/17 01:31:50;;;;;;;1.20;0.47;;;14.40;99.90;;;;;;5093503;28;20109;-85
2022/11/17 01:34:16;;;;;;;1.60;0.80;;;14.50;99.90;;;;;;5093846;28;20020;-85
2022/11/17 01:39:28;;;;;;;5.75;1.00;;;14.50;99.90;;;;;;5093556;28;20031;-85
2022/11/17 01:41:55;;;;;;;2.13;0.70;;;14.50;99.90;;;;;;5093396;28;20035;-85
2022/11/17 01:44:50;;;;;;;2.97;1.00;;;14.50;99.90;;;;;;5075197;28;20039;-85
2022/11/17 01:47:34;;;;;;;1.23;0.73;;;14.50;99.90;;;;;;5093104;28;20396;-84
2022/11/17 01:50:05;;;;;;;3.28;0.98;;;14.50;99.90;;;;;;5093230;28;20040;-85
2022/11/17 01:52:33;;;;;;;1.65;0.85;;;14.50;99.90;;;;;;5092820;28;20052;-84
2022/11/17 01:55:00;;;;;;;0.70;0.50;;;14.50;99.90;;;;;;5093473;28;20402;-85
2022/11/17 01:57:35;;;;;;;2.53;0.68;;;14.40;99.90;;;;;;5093424;28;20032;-84
2022/11/17 02:00:06;;;;;;;3.40;1.10;;;14.70;99.90;;;;;;5092929;28;20035;-84
2022/11/17 02:02:33;;;;;;;3.78;1.10;;;14.30;99.90;;;;;;5091716;28;20074;-85
2022/11/17 02:05:03;;;;;;;1.02;0.70;;;14.30;99.90;;;;;;5092799;28;20040;-85
2022/11/17 02:07:35;;;;;;;3.72;1.17;;;14.30;99.90;;;;;;5092727;28;20047;-84
2022/11/17 02:10:01;;;;;;;3.17;1.30;;;14.30;99.90;;;;;;5092004;28;20039;-84
2022/11/17 02:12:29;;;;;;;2.33;1.20;;;14.20;99.90;;;;;;5092888;28;20031;-85
2022/11/17 02:14:55;;;;;;;1.95;0.95;;;14.20;99.90;;;;;;5092703;28;20020;-85
2022/11/17 02:17:23;;;;;;;2.25;0.93;;;14.20;99.90;;;;;;5091540;28;20374;-85
2022/11/17 02:20:12;;;;;;;2.35;0.90;;;14.20;99.90;;;;;;5074926;28;20024;-84
2022/11/17 02:22:58;;;;;;;3.42;1.08;;;14.20;99.90;;;;;;5092593;28;20519;-85
2022/11/17 02:25:34;;;;;;;2.80;1.20;;;14.20;99.90;;;;;;5092620;28;20031;-84
2022/11/17 02:28:03;;;;;;;3.20;1.08;;;14.20;99.90;;;;;;5092599;28;20106;-84
2022/11/17 02:30:44;;;;;;;2.08;1.02;;;14.20;99.90;;;;;;5074385;28;20030;-84
2022/11/17 02:33:33;;;;;;;2.75;0.90;;;14.20;99.90;;;;;;5092833;28;20020;-84
2022/11/17 02:36:27;;;;;;;2.60;1.10;;;14.20;99.90;;;;;;5092309;28;20245;-84
2022/11/17 02:39:02;;;;;;;1.23;0.85;;;14.20;99.90;;;;;;5092865;28;20031;-85
2022/11/17 02:41:39;;;;;;;2.88;0.95;;;14.20;99.90;;;;;;5092528;28;20115;-84
2022/11/17 02:44:23;;;;;;;1.65;1.10;;;14.20;99.90;;;;;;5092413;28;20439;-85
2022/11/17 02:46:55;;;;;;;3.30;0.85;;;14.10;99.90;;;;;;5092406;28;20063;-84
2022/11/17 02:49:31;;;;;;;1.48;1.10;;;14.20;99.90;;;;;;5092176;28;20077;-85
2022/11/17 02:51:58;;;;;;;1.50;0.60;;;14.10;99.90;;;;;;5091386;28;20115;-85
2022/11/17 02:54:27;;;;;;;1.45;0.60;;;14.20;99.90;;;;;;5092406;28;20555;-85
2022/11/17 02:56:53;;;;;;;1.08;0.77;;;14.20;99.90;;;;;;5092446;28;20061;-85
2022/11/17 02:59:29;;;;;;;2.42;0.75;;;14.20;99.90;;;;;;5092525;28;20024;-85
2022/11/17 03:02:18;;;;;;;2.72;1.10;;;14.20;99.90;;;;;;5092191;28;20025;-85
2022/11/17 03:04:58;;;;;;;2.92;1.17;;;14.20;99.90;;;;;;5091943;28;20096;-85
2022/11/17 03:07:29;;;;;;;3.70;1.25;;;14.20;99.90;;;;;;5092351;28;20029;-85
2022/11/17 03:10:10;;;;;;;1.13;0.60;;;14.20;99.90;;;;;;5092088;28;20020;-85
2022/11/17 03:12:58;;;;;;;2.33;0.77;;;14.20;99.90;;;;;;5092034;28;20028;-84
2022/11/17 03:15:48;;;;;;;2.63;0.70;;;14.10;99.90;;;;;;5092479;28;20038;-85
2022/11/17 03:18:18;;;;;;;1.33;0.90;;;14.50;99.90;;;;;;5091511;28;20040;-85
2022/11/17 03:20:50;;;;;;;3.47;0.85;;;14.20;99.90;;;;;;5092107;28;20025;-84
2022/11/17 03:23:23;;;;;;;4.25;1.20;;;14.20;99.90;;;;;;5092157;28;20028;-85
2022/11/17 03:25:54;;;;;;;1.85;0.60;;;14.20;99.90;;;;;;5091894;28;20040;-84
2022/11/17 03:28:25;;;;;;;2.83;1.13;;;14.20;99.90;;;;;;5092096;28;20051;-85
2022/11/17 03:30:52;;;;;;;1.95;0.80;;;14.20;99.90;;;;;;5096538;28;20020;-84
2022/11/17 03:33:21;;;;;;;2.35;0.90;;;14.20;99.90;;;;;;5095368;28;20020;-85
2022/11/17 03:36:00;;;;;;;2.67;0.90;;;14.20;99.90;;;;;;5095514;28;20047;-85
2022/11/17 03:38:30;;;;;;;14.00;1.58;;;14.20;99.90;;;;;;5096134;28;20496;-85
2022/11/17 03:40:59;;;;;;;1.83;0.85;;;14.20;99.90;;;;;;5095958;28;20016;-84
2022/11/17 03:43:27;;;;;;;1.80;0.80;;;14.10;99.90;;;;;;5095723;28;20038;-85
2022/11/17 03:45:56;;;;;;;1.70;0.90;;;14.10;99.90;;;;;;5095628;28;20032;-85
2022/11/17 03:48:25;;;;;;;0.90;0.65;;;14.20;99.90;;;;;;5095186;28;20016;-84
2022/11/17 03:51:10;;;;;;;2.25;0.93;;;14.30;99.90;;;;;;5096216;28;20036;-84
2022/11/17 03:53:36;;;;;;;0.98;0.70;;;14.20;99.90;;;;;;5095622;28;20069;-84
2022/11/17 03:56:38;;;;;;;2.95;1.05;;;14.20;99.90;;;;;;5095498;28;20024;-85
2022/11/17 03:59:13;;;;;;;2.05;0.85;;;14.30;99.90;;;;;;5093979;28;20039;-84
2022/11/17 04:01:39;;;;;;;4.47;1.20;;;14.20;99.90;;;;;;5095176;28;20468;-85
2022/11/17 04:04:05;;;;;;;2.50;0.80;;;14.20;99.90;;;;;;5095750;28;20031;-84
2022/11/17 04:06:30;;;;;;;0.68;0.40;;;14.20;99.90;;;;;;5095307;28;20393;-85
2022/11/17 04:08:56;;;;;;;1.95;0.80;;;14.10;99.90;;;;;;5095319;28;20069;-85
2022/11/17 04:16:51;;;;;;;2.28;0.80;;;14.00;99.90;;;;;;5094633;28;20031;-85
2022/11/17 04:19:17;;;;;;;3.08;0.90;;;14.00;99.90;;;;;;5095146;28;20028;-85
2022/11/17 04:21:42;;;;;;;2.00;0.70;;;14.00;99.90;;;;;;5095331;28;20446;-85
2022/11/17 04:24:08;;;;;;;3.85;1.05;;;14.10;99.90;;;;;;5095126;28;20031;-85
2022/11/17 04:29:17;;;;;;;1.13;0.43;;;14.10;99.90;;;;;;5094871;28;20085;-85
2022/11/17 04:31:43;;;;;;;1.65;0.60;;;14.10;99.90;;;;;;5094349;28;20032;-85
2022/11/17 04:34:08;;;;;;;1.90;0.77;;;14.10;99.90;;;;;;5095206;28;20028;-84
2022/11/17 04:36:36;;;;;;;2.25;1.08;;;14.10;99.90;;;;;;5094636;28;20044;-84
2022/11/17 04:39:02;;;;;;;3.25;1.30;;;14.20;99.90;;;;;;5094691;28;20028;-84
2022/11/17 04:44:15;;;;;;;2.75;1.00;;;14.30;99.90;;;;;;5094995;28;20080;-85
2022/11/17 04:46:43;;;;;;;1.75;0.82;;;14.10;99.90;;;;;;5092891;28;20032;-84
2022/11/17 04:49:09;;;;;;;2.45;1.10;;;14.10;99.90;;;;;;5094735;28;20030;-85
2022/11/17 04:51:36;;;;;;;2.42;1.20;;;14.10;99.90;;;;;;5094395;28;20087;-84
2022/11/17 04:54:03;;;;;;;1.85;0.90;;;14.10;99.90;;;;;;5093496;28;20047;-85
2022/11/17 04:56:29;;;;;;;1.85;1.00;;;14.10;99.90;;;;;;5094394;28;20033;-84
2022/11/17 04:58:55;;;;;;;2.67;1.10;;;14.20;99.90;;;;;;5095430;28;20016;-85
2022/11/17 05:01:22;;;;;;;1.60;0.95;;;14.10;99.90;;;;;;5094293;28;20052;-84
2022/11/17 05:03:53;;;;;;;4.80;0.88;;;14.20;99.90;;;;;;5094825;28;20020;-85
2022/11/17 05:06:36;;;;;;;3.22;0.90;;;14.30;99.90;;;;;;5093952;28;20126;-84
2022/11/17 05:09:15;;;;;;;2.55;0.80;;;14.30;99.90;;;;;;5093888;28;20442;-84
2022/11/17 05:14:30;;;;;;;2.95;0.90;;;14.30;99.90;;;;;;5031671;28;20125;-84
2022/11/17 05:17:05;;;;;;;0.73;0.43;;;14.60;99.90;;;;;;5031410;28;20029;-85
2022/11/17 05:19:44;;;;;;;2.83;0.75;;;14.40;99.90;;;;;;5031510;28;20030;-85
2022/11/17 05:25:00;;;;;;;3.17;0.82;;;14.40;99.90;;;;;;5031767;28;20084;-84
2022/11/17 05:27:26;;;;;;;1.58;0.70;;;14.40;99.90;;;;;;5014941;28;20021;-85
2022/11/17 05:29:51;;;;;;;1.50;0.73;;;14.40;99.90;;;;;;5030962;28;20029;-85
2022/11/17 05:32:18;;;;;;;2.92;0.77;;;14.40;99.90;;;;;;5031088;28;20578;-85
2022/11/17 05:34:44;;;;;;;3.08;0.77;;;14.50;99.90;;;;;;5030337;28;20079;-85
2022/11/17 05:37:09;;;;;;;1.58;0.85;;;14.50;99.90;;;;;;5011522;28;20046;-84
2022/11/17 05:39:35;;;;;;;3.00;1.00;;;14.50;99.90;;;;;;5011065;28;20041;-85
2022/11/17 05:42:01;;;;;;;2.35;0.90;;;14.50;99.90;;;;;;5011414;28;20037;-85
2022/11/17 05:44:26;;;;;;;3.90;0.65;;;14.50;99.90;;;;;;5011407;28;20104;-85
2022/11/17 05:46:52;;;;;;;2.65;0.98;;;14.60;99.90;;;;;;5011336;28;20042;-85
2022/11/17 05:49:17;;;;;;;2.55;0.75;;;14.60;99.90;;;;;;5011192;28;20030;-84
2022/11/17 05:51:43;;;;;;;1.40;0.88;;;14.60;99.90;;;;;;5036064;28;20523;-84
2022/11/17 05:54:09;;;;;;;0.80;0.70;;;14.70;99.90;;;;;;5052663;28;20082;-85
2022/11/17 05:56:58;;;;;;;2.17;0.90;;;14.80;99.90;;;;;;5035121;28;20041;-84
2022/11/17 05:59:36;;;;;;;2.78;0.80;;;14.80;99.90;;;;;;5052941;28;20508;-85
2022/11/17 06:02:21;;;;;;;3.33;0.90;;;14.80;99.90;;;;;;5052874;28;20477;-85
2022/11/17 06:04:48;;;;;;;1.23;0.60;;;14.80;99.90;;;;;;5052624;28;20025;-84
2022/11/17 06:07:14;;;;;;;1.65;0.88;;;14.90;99.90;;;;;;5052633;28;20037;-85
2022/11/17 06:09:41;;;;;;;3.83;0.80;;;14.80;99.90;;;;;;5052938;28;20029;-85
2022/11/17 06:12:07;;;;;;;1.25;0.50;;;14.80;99.90;;;;;;5052399;28;20070;-85
2022/11/17 06:14:34;;;;;;;2.28;0.68;;;15.00;99.90;;;;;;5052497;28;20059;-85
2022/11/17 06:17:04;;;;;;;1.90;0.90;;;14.80;99.90;;;;;;5055222;28;20020;-84
2022/11/17 06:19:40;;;;;;;3.03;0.70;;;14.70;99.90;;;;;;5072951;28;20086;-85
2022/11/17 06:22:07;;;;;;;3.72;1.05;;;14.60;99.90;;;;;;5054791;28;20028;-85
2022/11/17 06:24:32;;;;;;;4.18;0.90;;;14.60;99.90;;;;;;5072333;28;20543;-84
2022/11/17 06:26:58;;;;;;;1.60;1.13;;;14.60;99.90;;;;;;5071740;28;20083;-85
2022/11/17 06:29:26;;;;;;;2.85;1.10;;;14.50;99.90;;;;;;5072171;28;20024;-85
2022/11/17 06:31:52;;;;;;;1.33;0.90;;;14.60;99.90;;;;;;5054295;28;20378;-84
2022/11/17 06:34:18;;;;;;;3.55;1.30;;;14.50;99.90;;;;;;5054269;28;20028;-85
2022/11/17 06:36:43;;;;;;;3.22;1.65;;;14.50;99.90;;;;;;5089635;28;20134;-85
2022/11/17 06:39:09;;;;;;;2.13;1.10;;;14.40;99.90;;;;;;5092332;28;20026;-85
2022/11/17 06:41:36;;;;;;;5.57;1.65;;;14.40;99.90;;;;;;5092457;28;20024;-85
2022/11/17 06:44:01;;;;;;;5.10;1.02;;;14.40;99.90;;;;;;5092414;28;20475;-85
2022/11/17 06:46:36;;;;;;;2.38;0.90;;;14.50;99.90;;;;;;5092225;28;20039;-84
2022/11/17 06:49:03;;;;;;;3.30;0.98;;;14.40;99.90;;;;;;5092251;28;20024;-85
2022/11/17 06:51:29;;;;;;;2.55;1.23;;;14.30;99.90;;;;;;5092479;28;20024;-84
2022/11/17 06:53:55;;;;;;;1.75;1.17;;;14.20;99.90;;;;;;5092082;28;20539;-84
2022/11/17 06:56:20;;;;;;;2.08;1.30;;;14.20;99.90;;;;;;5074255;28;20046;-84
2022/11/17 06:58:46;;;;;;;1.55;1.00;;;14.10;99.90;;;;;;5092236;28;20027;-85
2022/11/17 07:01:13;;;;;;;3.55;1.30;;;14.00;99.90;;;;;;5092188;28;20032;-84
2022/11/17 07:03:41;;;;;;;1.83;0.90;;;13.70;99.90;;;;;;5094795;28;20012;-85
2022/11/17 07:06:09;;;;;;;3.13;1.23;;;14.60;99.90;;;;;;5098911;28;20036;-84
2022/11/17 07:08:36;;;;;;;2.30;0.80;;;14.30;99.90;;;;;;5097512;28;20601;-85
2022/11/17 07:11:04;;;;;;;1.60;1.10;;;14.40;99.90;;;;;;5098533;28;20587;-85
2022/11/17 07:13:32;;;;;;;1.48;0.90;;;14.40;99.90;;;;;;5080879;28;20227;-85
2022/11/17 07:16:06;;;;;;;3.55;1.48;;;14.50;99.90;;;;;;5098630;28;20080;-83
2022/11/17 07:18:32;;;;;;;5.68;1.98;;;14.50;99.90;;;;;;5098386;28;20040;-84
2022/11/17 07:21:06;;;;;;;3.40;1.67;;;14.60;99.90;;;;;;5098675;28;20020;-84
2022/11/17 07:23:32;;;;;;;1.42;0.80;;;14.70;99.90;;;;;;5098898;28;20039;-85
2022/11/17 07:25:58;;;;;;;2.20;1.35;;;14.60;99.90;;;;;;5098287;28;20059;-85
2022/11/17 07:28:24;;;;;;;3.55;1.10;;;14.60;99.90;;;;;;5099035;28;20028;-84
2022/11/17 07:30:50;;;;;;;3.33;1.40;;;14.60;99.90;;;;;;5099482;28;20024;-85
2022/11/17 07:33:15;;;;;;;4.40;1.08;;;14.70;99.90;;;;;;5098332;28;20031;-85
2022/11/17 07:35:41;;;;;;;1.75;1.10;;;14.70;99.90;;;;;;5080491;28;20546;-86
2022/11/17 07:38:07;;;;;;;3.13;1.23;;;14.90;99.90;;;;;;5081260;28;20073;-86
2022/11/17 07:40:32;;;;;;;3.17;1.50;;;15.40;99.90;;;;;;5098785;28;20439;-87
2022/11/17 07:42:58;;;;;;;4.30;1.50;;;15.90;99.90;;;;;;5081154;28;20495;-87
2022/11/17 07:45:24;;;;;;;4.72;1.48;;;16.30;99.90;;;;;;5099003;28;20388;-87
2022/11/17 07:47:54;;;;;;;3.05;1.30;;;16.00;99.90;;;;;;5099855;28;20509;-88
2022/11/17 07:50:20;;;;;;;4.20;1.10;;;16.10;99.90;;;;;;5099357;28;20492;-87
2022/11/17 07:52:50;;;;;;;3.92;1.20;;;16.20;99.90;;;;;;5099257;28;20104;-87
2022/11/17 07:55:16;;;;;;;5.07;1.30;;;16.20;99.90;;;;;;5098828;28;20052;-87
2022/11/17 07:57:42;;;;;;;4.85;1.20;;;17.50;99.90;;;;;;5099526;28;20063;-87
2022/11/17 08:00:08;;;;;;;2.33;1.30;;;18.70;99.90;;;;;;5098298;28;20024;-88
2022/11/17 08:02:34;;;;;;;4.90;1.50;;;19.40;99.90;;;;;;5098126;28;20081;-88
2022/11/17 08:04:59;;;;;;;3.05;1.10;;;19.90;99.90;;;;;;5080814;28;20035;-88
2022/11/17 08:07:25;;;;;;;3.58;0.90;;;20.80;99.90;;;;;;5097920;28;20032;-88
2022/11/17 08:09:50;;;;;;;3.47;1.40;;;21.50;99.90;;;;;;5099771;28;20028;-88
2022/11/17 08:12:16;;;;;;;1.95;0.80;;;23.10;99.90;;;;;;5099154;28;20016;-87
2022/11/17 08:14:41;;;;;;;1.98;0.85;;;22.30;99.90;;;;;;5098130;28;20024;-88
2022/11/17 08:17:07;;;;;;;1.02;0.90;;;22.60;99.90;;;;;;5095557;28;20081;-88
2022/11/17 08:19:33;;;;;;;3.00;1.25;;;23.00;99.90;;;;;;5077676;28;20110;-88
2022/11/17 08:21:59;;;;;;;6.13;1.50;;;24.60;99.90;;;;;;5095763;28;20024;-89
2022/11/17 08:24:24;;;;;;;2.88;1.17;;;24.40;99.90;;;;;;5095635;28;20024;-88
2022/11/17 08:26:50;;;;;;;1.50;0.70;;;23.60;99.90;;;;;;5096004;28;20040;-88
2022/11/17 08:29:16;;;;;;;2.97;1.08;;;23.40;99.90;;;;;;5095287;28;20535;-88
2022/11/17 08:31:45;;;;;;;2.22;0.70;;;23.60;99.90;;;;;;5095193;28;20024;-89
2022/11/17 08:34:11;;;;;;;3.05;0.90;;;23.50;99.90;;;;;;5095973;28;20024;-88
2022/11/17 08:36:37;;;;;;;2.85;1.00;;;24.80;99.90;;;;;;5094081;28;20117;-89
2022/11/17 08:39:03;;;;;;;2.75;1.10;;;24.30;99.90;;;;;;5094923;28;20464;-88
2022/11/17 08:41:28;;;;;;;2.20;1.60;;;25.40;99.90;;;;;;5095368;28;20081;-89
2022/11/17 08:43:54;;;;;;;1.27;1.02;;;25.60;99.90;;;;;;5095613;28;20109;-88
2022/11/17 08:46:20;;;;;;;2.55;1.00;;;25.20;99.90;;;;;;5077381;28;20035;-89
2022/11/17 08:48:45;;;;;;;2.15;1.00;;;24.90;99.90;;;;;;5095330;28;20491;-89
2022/11/17 08:51:13;;;;;;;3.00;1.00;;;24.00;99.90;;;;;;5095512;28;20031;-88
2022/11/17 08:53:39;;;;;;;3.35;1.50;;;24.50;99.90;;;;;;5095138;28;20464;-88
2022/11/17 08:56:06;;;;;;;3.47;1.05;;;24.90;99.90;;;;;;5095467;28;20487;-89
2022/11/17 08:58:37;;;;;;;1.50;0.90;;;25.10;99.90;;;;;;5095104;28;20028;-89
2022/11/17 09:01:06;;;;;;;3.13;1.33;;;25.30;99.90;;;;;;5094709;28;20063;-88
2022/11/17 09:03:32;;;;;;;5.18;1.20;;;26.20;99.90;;;;;;5077236;28;20114;-89
2022/11/17 09:05:58;;;;;;;3.45;1.17;;;26.00;99.90;;;;;;5095004;28;20123;-89
2022/11/17 09:08:24;;;;;;;1.73;1.17;;;27.20;99.90;;;;;;5095210;28;20024;-88
2022/11/17 09:10:50;;;;;;;1.30;0.90;;;26.20;99.90;;;;;;5095320;28;20065;-89
2022/11/17 09:13:16;;;;;;;4.22;1.40;;;27.00;99.90;;;;;;5094908;28;20487;-89
2022/11/17 09:15:42;;;;;;;2.05;1.25;;;26.70;99.90;;;;;;5095561;28;20097;-89
2022/11/17 09:18:07;;;;;;;4.32;1.23;;;26.60;99.90;;;;;;5094504;28;20024;-89
2022/11/17 09:20:33;;;;;;;2.50;0.90;;;25.70;99.90;;;;;;5094799;28;20036;-89
2022/11/17 09:23:00;;;;;;;4.10;1.30;;;25.40;99.90;;;;;;5094435;28;20555;-89
2022/11/17 09:25:27;;;;;;;2.13;1.15;;;27.00;99.90;;;;;;5094508;28;20031;-90
2022/11/17 09:27:52;;;;;;;1.95;1.00;;;27.10;99.90;;;;;;5094254;28;20035;-89
2022/11/17 09:30:21;;;;;;;2.05;0.93;;;28.00;99.90;;;;;;5094225;28;20028;-89
2022/11/17 09:32:50;;;;;;;3.13;1.10;;;26.70;99.90;;;;;;5094846;28;20107;-89
2022/11/17 09:35:17;;;;;;;2.20;1.20;;;26.20;99.90;;;;;;5076021;28;20600;-89
2022/11/17 09:37:43;;;;;;;1.70;1.15;;;28.30;99.90;;;;;;5094873;28;20099;-90
2022/11/17 09:40:18;;;;;;;3.20;1.42;;;28.50;99.90;;;;;;5076517;28;20103;-89
2022/11/17 09:42:44;;;;;;;1.63;1.10;;;26.10;99.90;;;;;;5094074;28;20055;-90
2022/11/17 09:45:24;;;;;;;4.80;1.20;;;25.00;99.90;;;;;;5076452;28;20115;-89
2022/11/17 09:48:08;;;;;;;1.20;0.90;;;24.20;99.90;;;;;;5094574;28;20020;-89
2022/11/17 09:50:38;;;;;;;2.70;1.33;;;20.20;99.90;;;;;;5076503;28;20032;-89
2022/11/17 09:53:09;;;;;;;1.80;0.93;;;21.00;99.90;;;;;;5094856;28;20369;-90
2022/11/17 09:55:38;;;;;;;5.07;1.52;;;20.60;99.90;;;;;;5076334;28;20066;-89
2022/11/17 09:58:31;;;;;;;4.05;1.25;;;24.90;99.90;;;;;;5094374;28;20386;-89
2022/11/17 10:00:57;;;;;;;2.35;1.15;;;26.50;99.90;;;;;;5094239;28;20050;-92
2022/11/17 10:03:30;;;;;;;3.30;1.50;;;26.10;99.90;;;;;;5094265;28;20028;-89
2022/11/17 10:05:58;;;;;;;4.20;1.20;;;26.10;99.90;;;;;;5093567;28;20075;-90
2022/11/17 10:09:08;;;;;;;4.40;0.95;;;27.30;99.90;;;;;;5094255;28;20511;-90
2022/11/17 10:11:38;;;;;;;3.42;1.50;;;26.20;99.90;;;;;;5012089;28;20029;-89
2022/11/17 10:14:17;;;;;;;4.60;1.38;;;26.50;99.90;;;;;;5012252;28;20411;-90
2022/11/17 10:16:57;;;;;;;3.00;1.15;;;27.80;99.90;;;;;;4996866;28;20576;-90
2022/11/17 10:19:29;;;;;;;3.72;1.27;;;28.10;99.90;;;;;;5014814;28;20105;-90
2022/11/17 10:22:00;;;;;;;4.60;1.40;;;28.50;99.90;;;;;;5031920;28;20002;-90
2022/11/17 10:24:37;;;;;;;4.03;1.15;;;30.70;99.90;;;;;;5014886;28;20530;-89
2022/11/17 10:27:23;;;;;;;2.83;1.17;;;28.60;99.90;;;;;;5031760;28;20049;-90
2022/11/17 10:30:03;;;;;;;5.10;1.70;;;29.90;99.90;;;;;;5031198;28;20064;-89
2022/11/17 10:32:32;;;;;;;5.68;1.50;;;29.90;99.90;;;;;;5024504;28;20034;-90
2022/11/17 10:35:16;;;;;;;3.80;1.63;;;29.90;99.90;;;;;;5011089;28;20112;-90
2022/11/17 10:38:13;;;;;;;2.47;1.42;;;29.20;99.90;;;;;;5011235;28;20040;-90
2022/11/17 10:40:39;;;;;;;3.60;1.40;;;32.20;99.90;;;;;;5003599;28;20489;-90
2022/11/17 10:43:10;;;;;;;4.38;1.70;;;32.10;99.90;;;;;;5011696;28;20080;-90
2022/11/17 10:45:42;;;;;;;2.67;1.40;;;30.80;99.90;;;;;;5033499;28;20453;-90
2022/11/17 10:48:32;;;;;;;4.13;1.60;;;29.00;99.90;;;;;;5053012;28;20033;-90
2022/11/17 10:51:02;;;;;;;4.20;1.70;;;29.00;99.90;;;;;;5053166;28;20078;-91
2022/11/17 10:53:43;;;;;;;4.20;1.63;;;28.40;99.90;;;;;;5053184;28;20096;-90
2022/11/17 10:56:18;;;;;;;3.30;1.48;;;30.80;99.90;;;;;;5053006;28;20432;-90
2022/11/17 10:59:22;;;;;;;3.25;1.48;;;25.40;99.90;;;;;;5053330;28;20397;-89
2022/11/17 11:01:51;;;;;;;3.42;1.70;;;22.40;99.90;;;;;;5048070;28;20041;-90
2022/11/17 11:04:31;;;;;;;3.65;1.52;;;20.40;99.90;;;;;;5053160;28;20489;-89
2022/11/17 11:07:06;;;;;;;3.33;1.40;;;20.00;99.90;;;;;;5053457;28;20539;-90
2022/11/17 11:09:35;;;;;;;3.65;1.55;;;20.00;99.90;;;;;;5053084;28;20025;-89
2022/11/17 11:12:04;;;;;;;3.22;1.40;;;19.70;99.90;;;;;;5053411;28;20032;-89
2022/11/17 11:14:41;;;;;;;3.78;1.50;;;19.40;99.90;;;;;;5053213;28;20485;-89
2022/11/17 11:17:13;;;;;;;4.90;1.33;;;19.50;99.90;;;;;;5056867;28;20034;-89
2022/11/17 11:19:42;;;;;;;4.03;1.40;;;18.90;99.90;;;;;;5055094;28;20024;-88
2022/11/17 11:22:29;;;;;;;4.13;1.60;;;18.70;99.90;;;;;;5055380;28;20024;-90
2022/11/17 11:25:19;;;;;;;2.15;1.05;;;18.40;99.90;;;;;;5073179;28;20029;-89
2022/11/17 11:28:28;;;;;;;4.07;1.33;;;18.30;99.90;;;;;;5055699;28;20123;-89
2022/11/17 11:31:12;;;;;;;3.65;1.30;;;18.30;99.90;;;;;;5072989;28;20036;-89
2022/11/17 11:33:44;;;;;;;3.95;1.20;;;18.30;99.90;;;;;;5072980;28;20548;-89
2022/11/17 11:36:14;;;;;;;3.17;1.20;;;18.20;99.90;;;;;;5067912;28;20044;-90
2022/11/17 11:38:51;;;;;;;3.58;1.20;;;18.10;99.90;;;;;;5093907;28;20028;-89
2022/11/17 11:41:41;;;;;;;3.03;1.08;;;17.80;99.90;;;;;;5075177;28;20088;-89
2022/11/17 11:44:28;;;;;;;5.28;1.40;;;17.50;99.90;;;;;;5093217;28;20024;-89
2022/11/17 11:47:23;;;;;;;4.57;1.40;;;17.60;99.90;;;;;;5093341;28;20036;-88
2022/11/17 11:49:56;;;;;;;2.55;1.35;;;17.60;99.90;;;;;;5076835;28;20043;-88
2022/11/17 11:52:30;;;;;;;2.10;1.10;;;17.40;99.90;;;;;;5096906;28;20024;-89
2022/11/17 11:55:03;;;;;;;3.97;1.63;;;17.20;99.90;;;;;;5096833;28;20020;-90
2022/11/17 11:57:49;;;;;;;5.35;1.27;;;17.70;99.90;;;;;;5096404;28;20134;-85
2022/11/17 12:00:16;;;;;;;4.28;1.30;;;17.30;99.90;;;;;;5095613;28;20024;-85
2022/11/17 12:02:44;;;;;;;3.00;1.35;;;17.80;99.90;;;;;;5096148;28;20184;-85
2022/11/17 12:05:31;;;;;;;3.08;1.40;;;17.80;99.90;;;;;;5095728;28;20031;-85
2022/11/17 12:07:59;;;;;;;2.45;1.40;;;17.50;99.90;;;;;;5095888;28;20031;-85
2022/11/17 12:10:44;;;;;;;3.22;0.95;;;17.30;99.90;;;;;;5095647;28;20056;-85
2022/11/17 12:13:17;;;;;;;3.85;1.10;;;17.10;99.90;;;;;;5095673;28;20034;-85
2022/11/17 12:15:42;;;;;;;3.75;1.40;;;17.30;99.90;;;;;;5095630;28;20028;-85
2022/11/17 12:18:17;;;;;;;2.72;1.35;;;17.20;99.90;;;;;;5064679;28;20032;-85
2022/11/17 12:20:52;;;;;;;3.00;1.30;;;17.20;99.90;;;;;;5075210;28;20111;-86
2022/11/17 12:23:45;;;;;;;2.83;1.17;;;17.20;99.90;;;;;;5075104;28;20111;-85
2022/11/17 12:26:29;;;;;;;3.63;1.40;;;17.50;99.90;;;;;;5074991;28;20041;-85
2022/11/17 12:29:20;;;;;;;4.38;1.58;;;17.50;99.90;;;;;;5075032;28;20240;-85
2022/11/17 12:31:47;;;;;;;2.22;1.23;;;17.50;99.90;;;;;;5074859;28;20028;-85
2022/11/17 12:34:25;;;;;;;5.30;1.50;;;17.50;99.90;;;;;;5075330;28;20523;-85
2022/11/17 12:37:25;;;;;;;3.67;1.52;;;17.60;99.90;;;;;;5093246;28;20043;-85
2022/11/17 12:39:50;;;;;;;4.80;1.90;;;18.00;99.90;;;;;;5095331;28;20085;-85
2022/11/17 12:42:16;;;;;;;3.38;1.63;;;18.00;99.90;;;;;;5095998;28;20027;-85
2022/11/17 12:44:47;;;;;;;4.63;1.90;;;17.80;99.90;;;;;;5094622;28;20023;-85
2022/11/17 12:47:16;;;;;;;4.70;1.80;;;18.00;99.90;;;;;;5094712;28;20036;-85
2022/11/17 12:50:17;;;;;;;3.78;2.08;;;18.00;99.90;;;;;;5095120;28;20103;-85
2022/11/17 12:52:43;;;;;;;4.50;1.92;;;18.30;99.90;;;;;;5095217;28;20021;-85
2022/11/17 12:55:35;;;;;;;4.05;1.80;;;17.60;99.90;;;;;;5094797;28;20129;-85
2022/11/17 12:58:31;;;;;;;3.45;1.33;;;17.70;99.90;;;;;;5094560;28;20054;-85
2022/11/17 13:01:31;;;;;;;3.70;1.35;;;17.60;99.90;;;;;;5093960;28;20020;-85
2022/11/17 13:04:13;;;;;;;3.65;1.27;;;17.90;99.90;;;;;;5094597;28;20523;-85
2022/11/17 13:06:57;;;;;;;6.88;1.40;;;17.50;99.90;;;;;;5094292;28;20028;-85
2022/11/17 13:09:25;;;;;;;4.63;1.38;;;17.30;99.90;;;;;;5094544;28;20024;-85
2022/11/17 13:12:03;;;;;;;4.25;1.55;;;17.30;99.90;;;;;;5094538;28;20024;-85
2022/11/17 13:14:30;;;;;;;4.22;1.42;;;17.30;99.90;;;;;;5094072;28;20020;-85
2022/11/17 13:16:57;;;;;;;6.32;1.73;;;17.00;99.90;;;;;;5094023;28;20391;-85
2022/11/17 13:19:39;;;;;;;6.80;1.88;;;17.00;99.90;;;;;;5094687;28;20480;-85
2022/11/17 13:22:14;;;;;;;4.07;1.50;;;17.10;99.90;;;;;;5094310;28;20016;-85
2022/11/17 13:24:42;;;;;;;4.80;1.52;;;17.00;99.90;;;;;;5094224;28;20035;-85
2022/11/17 13:27:22;;;;;;;7.07;1.90;;;17.00;99.90;;;;;;5093709;28;20028;-85
2022/11/17 13:29:48;;;;;;;3.80;1.73;;;17.10;99.90;;;;;;5094564;28;20092;-85
2022/11/17 13:32:15;;;;;;;4.95;1.75;;;17.20;99.90;;;;;;5094021;28;20035;-86
2022/11/17 13:34:52;;;;;;;3.97;1.40;;;17.50;99.90;;;;;;5093872;28;20039;-84
2022/11/17 13:37:21;;;;;;;6.15;2.17;;;17.50;99.90;;;;;;5093702;28;20101;-85